sensor_id;sensor_type;location;lat;lon;timestamp;pressure;altitude;pressure_sealevel;temperature;humidity
45941;BME280;31858;46.008;8.978;2023-04-10T00:07:11;94976.34;;;9.36;100.00
45941;BME280;31858;46.008;8.978;2023-04-10T00:17:14;94978.13;;;9.28;100.00
45941;BME280;31858;46.008;8.978;2023-04-10T00:27:16;94977.56;;;9.19;100.00
45941;BME280;31858;46.008;8.978;2023-04-10T00:37:19;94988.91;;;9.16;100.00
45941;BME280;31858;46.008;8.978;2023-04-10T00:47:21;94986.59;;;9.14;100.00
45941;BME280;31858;46.008;8.978;2023-04-10T00:57:24;94988.28;;;9.03;100.00
45941;BME280;31858;46.008;8.978;2023-04-10T01:07:34;94982.97;;;8.84;100.00
45941;BME280;31858;46.008;8.978;2023-04-10T01:17:42;94987.84;;;8.63;100.00
45941;BME280;31858;46.008;8.978;2023-04-10T01:28:01;94983.06;;;8.53;100.00
45941;BME280;31858;46.008;8.978;2023-04-10T01:38:07;94983.31;;;8.47;100.00
45941;BME280;31858;46.008;8.978;2023-04-10T01:48:10;94985.28;;;8.50;100.00
45941;BME280;31858;46.008;8.978;2023-04-10T01:58:13;94986.09;;;8.35;100.00
45941;BME280;31858;46.008;8.978;2023-04-10T02:08:23;94981.19;;;8.22;100.00
45941;BME280;31858;46.008;8.978;2023-04-10T02:18:27;94982.91;;;8.14;100.00
45941;BME280;31858;46.008;8.978;2023-04-10T02:28:29;94993.19;;;8.15;100.00
45941;BME280;31858;46.008;8.978;2023-04-10T02:38:31;94995.84;;;8.15;100.00
45941;BME280;31858;46.008;8.978;2023-04-10T02:48:33;95002.63;;;8.13;100.00
45941;BME280;31858;46.008;8.978;2023-04-10T02:58:37;94997.66;;;8.11;100.00
45941;BME280;31858;46.008;8.978;2023-04-10T03:08:39;94999.69;;;8.02;100.00
45941;BME280;31858;46.008;8.978;2023-04-10T03:18:42;94993.28;;;7.88;100.00
45941;BME280;31858;46.008;8.978;2023-04-10T03:28:43;94998.00;;;7.94;100.00
45941;BME280;31858;46.008;8.978;2023-04-10T03:38:46;95001.78;;;7.77;100.00
45941;BME280;31858;46.008;8.978;2023-04-10T03:48:48;94999.56;;;7.79;100.00
45941;BME280;31858;46.008;8.978;2023-04-10T03:58:53;95019.31;;;7.66;100.00
45941;BME280;31858;46.008;8.978;2023-04-10T04:08:54;95023.31;;;7.60;100.00
45941;BME280;31858;46.008;8.978;2023-04-10T04:18:57;95023.56;;;7.55;100.00
45941;BME280;31858;46.008;8.978;2023-04-10T04:28:59;95024.91;;;7.49;100.00
45941;BME280;31858;46.008;8.978;2023-04-10T04:39:02;95025.22;;;7.32;100.00
45941;BME280;31858;46.008;8.978;2023-04-10T04:49:04;95031.00;;;7.22;100.00
45941;BME280;31858;46.008;8.978;2023-04-10T04:59:07;95028.09;;;6.99;100.00
45941;BME280;31858;46.008;8.978;2023-04-10T05:09:08;95026.34;;;6.91;100.00
45941;BME280;31858;46.008;8.978;2023-04-10T05:19:11;95034.66;;;6.77;100.00
45941;BME280;31858;46.008;8.978;2023-04-10T05:29:13;95037.94;;;6.86;100.00
45941;BME280;31858;46.008;8.978;2023-04-10T05:39:16;95054.38;;;6.92;100.00
45941;BME280;31858;46.008;8.978;2023-04-10T05:49:17;95057.38;;;6.78;100.00
45941;BME280;31858;46.008;8.978;2023-04-10T05:59:20;95061.00;;;6.85;100.00
45941;BME280;31858;46.008;8.978;2023-04-10T06:09:22;95074.91;;;6.95;100.00
45941;BME280;31858;46.008;8.978;2023-04-10T06:19:25;95086.91;;;7.04;100.00
45941;BME280;31858;46.008;8.978;2023-04-10T06:29:26;95084.56;;;7.15;100.00
45941;BME280;31858;46.008;8.978;2023-04-10T06:39:29;95091.91;;;7.34;100.00
45941;BME280;31858;46.008;8.978;2023-04-10T06:49:31;95090.81;;;7.35;100.00
45941;BME280;31858;46.008;8.978;2023-04-10T06:59:34;95092.22;;;7.44;100.00
45941;BME280;31858;46.008;8.978;2023-04-10T07:09:36;95093.00;;;7.45;99.47
45941;BME280;31858;46.008;8.978;2023-04-10T07:19:38;95088.75;;;7.56;95.33
45941;BME280;31858;46.008;8.978;2023-04-10T07:29:40;95086.78;;;7.53;100.00
45941;BME280;31858;46.008;8.978;2023-04-10T07:39:43;95090.63;;;7.56;100.00
45941;BME280;31858;46.008;8.978;2023-04-10T07:49:45;95089.03;;;7.67;100.00
45941;BME280;31858;46.008;8.978;2023-04-10T07:59:48;95079.38;;;7.74;100.00
45941;BME280;31858;46.008;8.978;2023-04-10T08:09:49;95094.53;;;7.74;100.00
45941;BME280;31858;46.008;8.978;2023-04-10T08:19:52;95111.47;;;7.69;100.00
45941;BME280;31858;46.008;8.978;2023-04-10T08:29:54;95101.03;;;7.76;100.00
45941;BME280;31858;46.008;8.978;2023-04-10T08:39:57;95102.16;;;7.91;96.43
45941;BME280;31858;46.008;8.978;2023-04-10T08:50:00;95105.69;;;8.11;88.14
45941;BME280;31858;46.008;8.978;2023-04-10T09:00:08;95105.72;;;8.27;91.14
45941;BME280;31858;46.008;8.978;2023-04-10T09:10:09;95096.06;;;8.50;100.00
45941;BME280;31858;46.008;8.978;2023-04-10T09:20:21;95095.19;;;8.77;85.50
45941;BME280;31858;46.008;8.978;2023-04-10T09:30:32;95072.00;;;9.13;85.03
45941;BME280;31858;46.008;8.978;2023-04-10T09:40:35;95081.34;;;9.42;87.17
45941;BME280;31858;46.008;8.978;2023-04-10T09:50:37;95075.25;;;9.61;79.49
45941;BME280;31858;46.008;8.978;2023-04-10T10:00:42;95058.56;;;9.64;73.48
45941;BME280;31858;46.008;8.978;2023-04-10T10:10:46;95058.50;;;10.02;78.77
45941;BME280;31858;46.008;8.978;2023-04-10T10:20:49;95056.19;;;10.01;73.03
45941;BME280;31858;46.008;8.978;2023-04-10T10:30:51;95041.03;;;10.51;71.06
45941;BME280;31858;46.008;8.978;2023-04-10T10:41:01;95038.44;;;11.10;69.28
45941;BME280;31858;46.008;8.978;2023-04-10T10:51:07;95028.91;;;11.39;68.91
45941;BME280;31858;46.008;8.978;2023-04-10T11:01:09;95018.81;;;11.59;70.46
45941;BME280;31858;46.008;8.978;2023-04-10T11:11:15;95012.78;;;11.66;65.21
45941;BME280;31858;46.008;8.978;2023-04-10T11:21:19;94999.09;;;11.71;62.90
45941;BME280;31858;46.008;8.978;2023-04-10T11:31:22;94995.13;;;11.54;65.93
45941;BME280;31858;46.008;8.978;2023-04-10T11:41:30;94989.13;;;11.64;68.58
45941;BME280;31858;46.008;8.978;2023-04-10T11:51:32;94975.72;;;11.98;63.67
45941;BME280;31858;46.008;8.978;2023-04-10T12:01:35;94974.97;;;12.01;63.50
45941;BME280;31858;46.008;8.978;2023-04-10T12:11:37;94971.66;;;12.15;66.59
45941;BME280;31858;46.008;8.978;2023-04-10T12:21:40;94970.34;;;12.42;62.04
45941;BME280;31858;46.008;8.978;2023-04-10T12:31:42;94973.41;;;12.44;60.66
45941;BME280;31858;46.008;8.978;2023-04-10T12:41:45;94963.63;;;12.69;60.82
45941;BME280;31858;46.008;8.978;2023-04-10T12:51:48;94953.09;;;13.08;58.70
45941;BME280;31858;46.008;8.978;2023-04-10T13:01:52;94942.13;;;13.31;56.72
45941;BME280;31858;46.008;8.978;2023-04-10T13:11:53;94932.53;;;13.27;53.96
45941;BME280;31858;46.008;8.978;2023-04-10T13:21:57;94917.25;;;13.31;53.25
45941;BME280;31858;46.008;8.978;2023-04-10T13:32:00;94896.69;;;13.88;56.92
45941;BME280;31858;46.008;8.978;2023-04-10T13:42:05;94893.22;;;14.02;53.28
45941;BME280;31858;46.008;8.978;2023-04-10T13:52:07;94884.81;;;13.75;53.33
45941;BME280;31858;46.008;8.978;2023-04-10T14:02:10;94882.53;;;13.66;55.10
45941;BME280;31858;46.008;8.978;2023-04-10T14:12:12;94865.31;;;13.75;55.13
45941;BME280;31858;46.008;8.978;2023-04-10T14:22:16;94861.09;;;13.84;52.02
45941;BME280;31858;46.008;8.978;2023-04-10T14:32:18;94838.88;;;14.05;52.33
45941;BME280;31858;46.008;8.978;2023-04-10T14:42:21;94847.31;;;14.00;53.60
45941;BME280;31858;46.008;8.978;2023-04-10T14:52:23;94846.13;;;14.12;52.15
45941;BME280;31858;46.008;8.978;2023-04-10T15:02:26;94853.81;;;13.92;51.52
45941;BME280;31858;46.008;8.978;2023-04-10T15:12:29;94845.78;;;13.70;52.58
45941;BME280;31858;46.008;8.978;2023-04-10T15:22:32;94843.47;;;13.37;54.63
45941;BME280;31858;46.008;8.978;2023-04-10T15:32:35;94845.75;;;13.24;54.06
45941;BME280;31858;46.008;8.978;2023-04-10T15:42:38;94843.03;;;13.06;53.63
45941;BME280;31858;46.008;8.978;2023-04-10T15:52:40;94844.13;;;12.84;53.95
45941;BME280;31858;46.008;8.978;2023-04-10T16:02:43;94836.41;;;12.61;54.41
45941;BME280;31858;46.008;8.978;2023-04-10T16:12:44;94844.38;;;12.47;55.62
45941;BME280;31858;46.008;8.978;2023-04-10T16:22:47;94840.13;;;12.35;55.84
45941;BME280;31858;46.008;8.978;2023-04-10T16:32:49;94844.25;;;12.22;55.96
45941;BME280;31858;46.008;8.978;2023-04-10T16:42:52;94831.56;;;12.08;57.08
45941;BME280;31858;46.008;8.978;2023-04-10T16:52:54;94833.47;;;12.04;59.25
45941;BME280;31858;46.008;8.978;2023-04-10T17:02:58;94835.25;;;11.86;57.52
45941;BME280;31858;46.008;8.978;2023-04-10T17:13:00;94833.25;;;11.76;58.01
45941;BME280;31858;46.008;8.978;2023-04-10T17:23:03;94836.63;;;11.66;57.69
45941;BME280;31858;46.008;8.978;2023-04-10T17:33:04;94830.09;;;11.60;60.00
45941;BME280;31858;46.008;8.978;2023-04-10T17:43:07;94842.56;;;11.45;59.78
45941;BME280;31858;46.008;8.978;2023-04-10T17:53:09;94845.91;;;11.35;61.04
45941;BME280;31858;46.008;8.978;2023-04-10T18:03:12;94848.50;;;11.28;62.08
45941;BME280;31858;46.008;8.978;2023-04-10T18:13:13;94856.84;;;11.23;62.05
45941;BME280;31858;46.008;8.978;2023-04-10T18:23:16;94870.94;;;11.23;63.38
45941;BME280;31858;46.008;8.978;2023-04-10T18:33:18;94878.91;;;11.20;63.58
45941;BME280;31858;46.008;8.978;2023-04-10T18:43:25;94884.25;;;11.20;64.09
45941;BME280;31858;46.008;8.978;2023-04-10T18:53:27;94872.44;;;11.21;63.40
45941;BME280;31858;46.008;8.978;2023-04-10T19:03:30;94871.72;;;11.24;62.42
45941;BME280;31858;46.008;8.978;2023-04-10T19:13:32;94872.75;;;11.12;62.61
45941;BME280;31858;46.008;8.978;2023-04-10T19:23:35;94874.09;;;10.95;63.70
45941;BME280;31858;46.008;8.978;2023-04-10T19:33:36;94861.28;;;11.08;63.08
45941;BME280;31858;46.008;8.978;2023-04-10T19:43:39;94880.38;;;11.14;64.74
45941;BME280;31858;46.008;8.978;2023-04-10T19:53:41;94902.44;;;11.10;64.54
45941;BME280;31858;46.008;8.978;2023-04-10T20:03:44;94908.38;;;10.97;66.44
45941;BME280;31858;46.008;8.978;2023-04-10T20:13:45;94898.72;;;10.85;68.18
45941;BME280;31858;46.008;8.978;2023-04-10T20:23:48;94907.84;;;10.84;66.74
45941;BME280;31858;46.008;8.978;2023-04-10T20:33:50;94914.22;;;10.76;68.46
45941;BME280;31858;46.008;8.978;2023-04-10T20:43:54;94899.25;;;10.64;68.69
45941;BME280;31858;46.008;8.978;2023-04-10T20:53:56;94891.69;;;10.70;66.67
45941;BME280;31858;46.008;8.978;2023-04-10T21:03:59;94883.22;;;10.94;65.60
45941;BME280;31858;46.008;8.978;2023-04-10T21:14:01;94875.25;;;10.64;68.58
45941;BME280;31858;46.008;8.978;2023-04-10T21:24:04;94878.41;;;10.73;69.63
45941;BME280;31858;46.008;8.978;2023-04-10T21:34:06;94888.59;;;10.64;71.04
45941;BME280;31858;46.008;8.978;2023-04-10T21:44:09;94872.97;;;10.63;70.24
45941;BME280;31858;46.008;8.978;2023-04-10T21:54:10;94867.44;;;10.49;70.62
45941;BME280;31858;46.008;8.978;2023-04-10T22:04:13;94882.22;;;10.42;71.46
45941;BME280;31858;46.008;8.978;2023-04-10T22:14:15;94877.22;;;10.37;73.65
45941;BME280;31858;46.008;8.978;2023-04-10T22:24:18;94865.75;;;10.33;71.92
45941;BME280;31858;46.008;8.978;2023-04-10T22:34:19;94878.34;;;10.36;73.06
45941;BME280;31858;46.008;8.978;2023-04-10T22:44:22;94877.13;;;10.30;72.19
45941;BME280;31858;46.008;8.978;2023-04-10T22:54:24;94850.50;;;10.30;74.76
45941;BME280;31858;46.008;8.978;2023-04-10T23:04:27;94832.59;;;10.27;75.29
45941;BME280;31858;46.008;8.978;2023-04-10T23:14:28;94817.16;;;10.13;73.68
45941;BME280;31858;46.008;8.978;2023-04-10T23:24:32;94815.78;;;9.97;75.97
45941;BME280;31858;46.008;8.978;2023-04-10T23:34:34;94806.59;;;9.91;77.12
45941;BME280;31858;46.008;8.978;2023-04-10T23:44:37;94778.34;;;9.82;78.94
45941;BME280;31858;46.008;8.978;2023-04-10T23:54:39;94765.03;;;9.82;79.33
